createdAt,value
2023-03-31T00:00:01.349Z,12.50
2023-03-31T00:03:10.603Z,12.24
2023-03-31T00:06:19.153Z,12.29
2023-03-31T00:09:23.564Z,12.37
2023-03-31T00:12:27.392Z,12.36
2023-03-31T00:15:31.257Z,12.40
2023-03-31T00:18:36.636Z,12.38
2023-03-31T00:21:43.050Z,12.35
2023-03-31T00:24:46.682Z,12.35
2023-03-31T00:27:53.058Z,12.30
2023-03-31T00:31:02.496Z,12.20
2023-03-31T00:34:08.607Z,12.24
2023-03-31T00:37:16.285Z,12.17
2023-03-31T00:40:20.140Z,12.11
2023-03-31T00:43:30.321Z,12.20
2023-03-31T00:46:36.721Z,12.20
2023-03-31T00:49:45.586Z,12.03
2023-03-31T00:52:52.910Z,12.19
2023-03-31T00:56:00.697Z,11.91
2023-03-31T00:59:09.212Z,11.87
2023-03-31T01:02:15.301Z,12.04
2023-03-31T01:05:22.527Z,12.02
2023-03-31T01:08:28.573Z,11.89
2023-03-31T01:11:33.103Z,12.03
2023-03-31T01:14:37.843Z,12.21
2023-03-31T01:17:45.771Z,11.95
2023-03-31T01:21:18.994Z,11.89
2023-03-31T01:24:52.976Z,11.97
2023-03-31T01:28:10.128Z,11.83
2023-03-31T01:31:39.241Z,11.81
2023-03-31T01:35:19.945Z,11.93
2023-03-31T01:39:05.337Z,11.66
2023-03-31T01:42:16.642Z,11.84
2023-03-31T01:45:30.692Z,11.62
2023-03-31T01:48:47.582Z,11.79
2023-03-31T01:51:58.631Z,11.75
2023-03-31T01:55:08.414Z,11.73
2023-03-31T01:58:18.606Z,11.55
2023-03-31T02:01:27.308Z,11.62
2023-03-31T02:04:34.422Z,11.40
2023-03-31T02:07:43.086Z,11.25
2023-03-31T02:10:48.034Z,11.52
2023-03-31T02:13:56.247Z,11.51
2023-03-31T02:17:02.659Z,11.51
2023-03-31T02:20:11.932Z,11.41
2023-03-31T02:23:19.892Z,11.51
2023-03-31T02:26:27.728Z,11.52
2023-03-31T02:29:35.684Z,11.49
2023-03-31T02:32:41.679Z,11.58
2023-03-31T02:35:45.419Z,11.58
2023-03-31T02:38:53.694Z,11.63
2023-03-31T02:41:58.674Z,11.62
2023-03-31T02:45:06.418Z,11.61
2023-03-31T02:48:17.558Z,11.25
2023-03-31T02:51:41.471Z,11.38
2023-03-31T02:55:30.931Z,11.57
2023-03-31T02:59:05.125Z,11.56
2023-03-31T03:02:20.333Z,11.73
2023-03-31T03:05:35.942Z,11.63
2023-03-31T03:09:09.744Z,11.71
2023-03-31T03:12:22.950Z,11.58
2023-03-31T03:15:31.964Z,11.53
2023-03-31T03:18:37.331Z,11.50
2023-03-31T03:21:41.724Z,11.62
2023-03-31T03:24:45.466Z,11.62
2023-03-31T03:27:49.548Z,11.61
2023-03-31T03:30:53.770Z,11.47
2023-03-31T03:33:58.872Z,11.20
2023-03-31T03:37:02.483Z,11.49
2023-03-31T03:40:07.959Z,11.59
2023-03-31T03:43:11.557Z,11.30
2023-03-31T03:46:15.271Z,10.93
2023-03-31T03:49:20.594Z,10.79
2023-03-31T03:52:24.195Z,10.68
2023-03-31T03:55:27.683Z,10.80
2023-03-31T03:58:31.270Z,10.64
2023-03-31T04:01:34.814Z,10.87
2023-03-31T04:04:40.072Z,10.79
2023-03-31T04:07:43.898Z,10.85
2023-03-31T04:10:49.254Z,10.91
2023-03-31T04:13:52.945Z,10.92
2023-03-31T04:16:58.801Z,10.83
2023-03-31T04:20:08.025Z,10.90
2023-03-31T04:23:15.106Z,10.43
2023-03-31T04:26:26.927Z,10.10
2023-03-31T04:29:33.936Z,9.86
2023-03-31T04:32:37.709Z,10.40
2023-03-31T04:36:00.293Z,10.31
2023-03-31T04:39:03.924Z,10.39
2023-03-31T04:42:07.512Z,10.32
2023-03-31T04:45:12.480Z,10.67
2023-03-31T04:48:16.050Z,10.53
2023-03-31T04:51:21.429Z,10.60
2023-03-31T04:54:24.981Z,10.61
2023-03-31T04:57:28.816Z,10.88
2023-03-31T05:00:32.745Z,10.97
2023-03-31T05:03:37.068Z,10.85
2023-03-31T05:06:42.604Z,11.08
2023-03-31T05:09:47.324Z,11.20
2023-03-31T05:12:51.350Z,10.82
2023-03-31T05:15:55.285Z,11.13
2023-03-31T05:18:59.288Z,11.14
2023-03-31T05:22:04.705Z,11.02
2023-03-31T05:25:12.038Z,11.33
2023-03-31T05:28:15.968Z,11.50
2023-03-31T05:31:20.139Z,11.24
2023-03-31T05:34:24.168Z,11.44
2023-03-31T05:37:29.700Z,11.58
2023-03-31T05:40:33.678Z,11.59
2023-03-31T05:43:37.965Z,11.48
2023-03-31T05:46:41.832Z,11.34
2023-03-31T05:49:45.988Z,11.28
2023-03-31T05:52:51.406Z,11.62
2023-03-31T05:56:00.278Z,11.59
2023-03-31T05:59:05.295Z,11.72
2023-03-31T06:02:10.252Z,11.45
2023-03-31T06:05:14.247Z,11.33
2023-03-31T06:08:19.668Z,11.39
2023-03-31T06:11:24.407Z,11.69
2023-03-31T06:14:29.601Z,11.85
2023-03-31T06:17:33.562Z,11.79
2023-03-31T06:20:37.807Z,11.84
2023-03-31T06:23:44.667Z,11.85
2023-03-31T06:26:48.711Z,12.07
2023-03-31T06:29:52.608Z,11.87
2023-03-31T06:32:56.788Z,11.80
2023-03-31T06:36:02.088Z,11.35
2023-03-31T06:39:07.679Z,11.25
2023-03-31T06:42:11.682Z,11.34
2023-03-31T06:45:18.128Z,11.39
2023-03-31T06:48:22.267Z,11.55
2023-03-31T06:51:26.323Z,11.93
2023-03-31T06:54:31.818Z,12.05
2023-03-31T06:57:37.071Z,12.12
2023-03-31T07:00:41.162Z,12.33
2023-03-31T07:03:45.066Z,12.67
2023-03-31T07:06:49.004Z,12.77
2023-03-31T07:09:56.389Z,12.86
2023-03-31T07:13:01.875Z,13.05
2023-03-31T07:16:08.464Z,13.13
2023-03-31T07:19:13.062Z,13.82
2023-03-31T07:22:17.209Z,14.12
2023-03-31T07:25:22.668Z,14.77
2023-03-31T07:28:26.524Z,15.01
2023-03-31T07:31:30.433Z,15.28
2023-03-31T07:34:37.404Z,15.50
2023-03-31T07:37:43.621Z,15.84
2023-03-31T07:40:58.575Z,16.32
2023-03-31T07:44:10.262Z,16.15
2023-03-31T07:47:14.222Z,16.11
2023-03-31T07:50:18.543Z,16.69
2023-03-31T07:53:23.744Z,16.57
2023-03-31T07:56:29.205Z,16.94
2023-03-31T07:59:33.345Z,17.49
2023-03-31T08:02:37.547Z,18.01
2023-03-31T08:05:41.546Z,17.22
2023-03-31T08:08:45.536Z,17.87
2023-03-31T08:11:51.161Z,17.74
2023-03-31T08:14:55.141Z,17.59
2023-03-31T08:17:59.116Z,17.72
2023-03-31T08:21:03.060Z,18.24
2023-03-31T08:24:07.484Z,17.63
2023-03-31T08:27:12.832Z,17.90
2023-03-31T08:30:17.203Z,18.76
2023-03-31T08:33:21.181Z,19.07
2023-03-31T08:36:25.171Z,18.60
2023-03-31T08:39:29.181Z,19.21
2023-03-31T08:42:40.501Z,19.82
2023-03-31T08:45:48.510Z,19.63
2023-03-31T08:48:55.330Z,20.12
2023-03-31T08:52:03.463Z,20.39
2023-03-31T08:55:14.609Z,20.40
2023-03-31T08:58:33.886Z,21.19
2023-03-31T09:01:55.603Z,20.70
2023-03-31T09:05:46.130Z,20.48
2023-03-31T09:09:04.972Z,20.72
2023-03-31T09:12:13.644Z,20.67
2023-03-31T09:15:26.507Z,21.35
2023-03-31T09:18:35.798Z,21.77
2023-03-31T09:21:44.901Z,22.17
2023-03-31T09:24:57.668Z,22.47
2023-03-31T09:28:04.226Z,22.93
2023-03-31T09:31:16.311Z,21.87
2023-03-31T09:34:31.736Z,21.73
2023-03-31T09:37:35.674Z,21.10
2023-03-31T09:40:40.051Z,21.80
2023-03-31T09:43:46.410Z,22.00
2023-03-31T09:46:53.011Z,22.30
2023-03-31T09:49:56.966Z,22.25
2023-03-31T09:53:03.026Z,22.34
2023-03-31T09:56:11.651Z,22.10
2023-03-31T09:59:18.667Z,22.07
2023-03-31T10:02:40.886Z,22.41
2023-03-31T10:05:52.344Z,22.71
2023-03-31T10:08:59.854Z,23.05
2023-03-31T10:12:07.545Z,23.00
2023-03-31T10:15:21.260Z,23.58
2023-03-31T10:18:35.859Z,23.56
2023-03-31T10:21:40.370Z,23.69
2023-03-31T10:24:46.324Z,23.73
2023-03-31T10:27:54.449Z,24.11
2023-03-31T10:31:01.697Z,24.38
2023-03-31T10:34:12.846Z,24.79
2023-03-31T10:37:20.305Z,24.64
2023-03-31T10:40:26.804Z,24.93
2023-03-31T10:43:32.110Z,24.88
2023-03-31T10:46:44.771Z,24.59
2023-03-31T10:49:57.938Z,24.94
2023-03-31T10:53:07.754Z,25.16
2023-03-31T10:56:24.543Z,25.39
2023-03-31T10:59:44.007Z,25.69
2023-03-31T11:03:19.286Z,25.56
2023-03-31T11:06:31.703Z,24.65
2023-03-31T11:09:45.588Z,24.21
2023-03-31T11:12:54.425Z,23.85
2023-03-31T11:16:05.127Z,23.53
2023-03-31T11:19:21.483Z,23.50
2023-03-31T11:22:33.469Z,23.13
2023-03-31T11:25:46.119Z,23.15
2023-03-31T11:29:02.984Z,23.77
2023-03-31T11:32:31.619Z,23.43
2023-03-31T11:36:05.583Z,23.52
2023-03-31T11:39:24.365Z,23.61
2023-03-31T11:42:31.562Z,23.68
2023-03-31T11:45:40.109Z,23.09
2023-03-31T11:48:48.201Z,23.17
2023-03-31T11:51:56.120Z,23.26
2023-03-31T11:55:05.161Z,23.13
2023-03-31T11:58:14.666Z,23.49
2023-03-31T12:01:26.922Z,23.39
2023-03-31T12:04:36.902Z,23.61
2023-03-31T12:07:45.522Z,23.32
2023-03-31T12:10:56.635Z,23.65
2023-03-31T12:14:10.841Z,24.13
2023-03-31T12:17:16.762Z,24.53
2023-03-31T12:20:30.830Z,24.92
2023-03-31T12:23:41.184Z,25.11
2023-03-31T12:26:57.917Z,24.82
2023-03-31T12:30:04.739Z,24.94
2023-03-31T12:33:18.626Z,24.96
2023-03-31T12:36:35.404Z,24.73
2023-03-31T12:39:52.951Z,24.47
2023-03-31T12:43:32.856Z,24.85
2023-03-31T12:47:05.751Z,24.57
2023-03-31T12:50:37.885Z,24.79
2023-03-31T12:53:55.867Z,25.03
2023-03-31T12:57:15.043Z,24.69
2023-03-31T13:00:26.649Z,25.08
2023-03-31T13:03:49.206Z,25.46
2023-03-31T13:07:00.084Z,25.11
2023-03-31T13:10:29.015Z,25.26
2023-03-31T13:13:32.909Z,25.22
2023-03-31T13:16:38.404Z,24.87
2023-03-31T13:19:43.585Z,24.48
2023-03-31T13:22:49.804Z,24.13
2023-03-31T13:25:54.312Z,24.43
2023-03-31T13:29:13.686Z,24.42
2023-03-31T13:32:24.390Z,24.08
2023-03-31T13:35:34.301Z,24.02
2023-03-31T13:38:53.623Z,23.89
2023-03-31T13:42:08.062Z,23.70
2023-03-31T13:45:33.418Z,23.67
2023-03-31T13:48:49.860Z,23.77
2023-03-31T13:51:57.486Z,24.01
2023-03-31T13:55:24.200Z,23.97
2023-03-31T13:58:46.010Z,23.70
2023-03-31T14:02:29.085Z,23.42
2023-03-31T14:05:39.020Z,23.51
2023-03-31T14:08:52.088Z,23.87
2023-03-31T14:11:56.942Z,23.80
2023-03-31T14:15:01.348Z,23.93
2023-03-31T14:18:07.289Z,23.91
2023-03-31T14:21:22.961Z,24.08
2023-03-31T14:24:33.122Z,24.07
2023-03-31T14:27:51.565Z,23.99
2023-03-31T14:31:06.114Z,23.79
2023-03-31T14:34:42.102Z,23.40
2023-03-31T14:37:49.265Z,23.21
2023-03-31T14:40:56.545Z,23.08
2023-03-31T14:44:04.406Z,22.87
2023-03-31T14:47:13.550Z,22.80
2023-03-31T14:50:20.654Z,22.73
2023-03-31T14:53:28.450Z,22.58
2023-03-31T14:56:37.696Z,22.61
2023-03-31T14:59:41.788Z,22.77
2023-03-31T15:02:47.987Z,23.19
2023-03-31T15:05:53.828Z,23.44
2023-03-31T15:08:59.769Z,23.36
2023-03-31T15:12:08.708Z,23.03
2023-03-31T15:15:15.232Z,22.66
2023-03-31T15:18:20.069Z,22.62
2023-03-31T15:21:26.348Z,22.71
2023-03-31T15:24:32.270Z,22.71
2023-03-31T15:27:39.594Z,22.58
2023-03-31T15:30:45.281Z,22.51
2023-03-31T15:33:49.777Z,22.64
2023-03-31T15:36:57.173Z,22.45
2023-03-31T15:40:08.048Z,22.57
2023-03-31T15:43:25.541Z,22.70
2023-03-31T15:46:58.437Z,22.72
2023-03-31T15:50:14.501Z,22.61
2023-03-31T15:53:29.475Z,22.56
2023-03-31T15:56:45.538Z,22.55
2023-03-31T15:59:55.806Z,22.40
2023-03-31T16:03:02.016Z,22.39
2023-03-31T16:06:09.853Z,22.20
2023-03-31T16:09:18.921Z,22.12
2023-03-31T16:12:27.161Z,22.00
2023-03-31T16:15:34.693Z,21.84
2023-03-31T16:18:44.645Z,21.84
2023-03-31T16:21:52.942Z,21.86
2023-03-31T16:24:56.964Z,21.62
2023-03-31T16:28:04.544Z,21.51
2023-03-31T16:31:34.742Z,21.38
2023-03-31T16:34:54.172Z,21.31
2023-03-31T16:37:58.103Z,21.25
2023-03-31T16:41:02.082Z,21.15
2023-03-31T16:44:07.765Z,21.07
2023-03-31T16:47:17.537Z,21.00
2023-03-31T16:50:27.865Z,20.95
2023-03-31T16:53:34.070Z,20.84
2023-03-31T16:56:38.086Z,20.77
2023-03-31T16:59:44.530Z,20.65
2023-03-31T17:02:48.843Z,20.65
2023-03-31T17:05:56.853Z,20.57
2023-03-31T17:09:02.446Z,20.49
2023-03-31T17:12:06.948Z,20.38
2023-03-31T17:15:13.703Z,20.30
2023-03-31T17:18:18.153Z,20.20
2023-03-31T17:21:23.180Z,20.14
2023-03-31T17:24:27.753Z,20.08
2023-03-31T17:27:32.447Z,20.07
2023-03-31T17:30:40.087Z,19.95
2023-03-31T17:33:44.514Z,20.04
2023-03-31T17:36:51.703Z,19.99
2023-03-31T17:39:55.682Z,19.91
2023-03-31T17:42:59.725Z,19.81
2023-03-31T17:46:06.588Z,19.88
2023-03-31T17:49:10.461Z,19.84
2023-03-31T17:52:14.983Z,19.81
2023-03-31T17:55:19.250Z,19.65
2023-03-31T17:58:23.680Z,19.67
2023-03-31T18:01:29.087Z,19.63
2023-03-31T18:04:33.169Z,19.42
2023-03-31T18:07:38.495Z,19.44
2023-03-31T18:10:43.313Z,19.38
2023-03-31T18:13:47.168Z,19.35
2023-03-31T18:16:52.743Z,19.39
2023-03-31T18:19:56.678Z,19.24
2023-03-31T18:23:00.717Z,19.28
2023-03-31T18:26:06.998Z,19.27
2023-03-31T18:29:10.998Z,19.16
2023-03-31T18:32:16.721Z,19.04
2023-03-31T18:35:23.661Z,19.00
2023-03-31T18:38:28.418Z,19.00
2023-03-31T18:41:32.478Z,18.96
2023-03-31T18:44:36.758Z,19.03
2023-03-31T18:47:42.395Z,18.89
2023-03-31T18:50:47.078Z,18.94
2023-03-31T18:53:51.068Z,18.82
2023-03-31T18:56:54.949Z,18.77
2023-03-31T18:59:58.899Z,18.16
2023-03-31T19:03:04.467Z,18.27
2023-03-31T19:06:10.662Z,18.14
2023-03-31T19:09:14.763Z,17.89
2023-03-31T19:12:18.709Z,17.86
2023-03-31T19:15:23.166Z,17.81
2023-03-31T19:18:29.815Z,17.74
2023-03-31T19:21:36.660Z,17.70
2023-03-31T19:24:40.666Z,17.66
2023-03-31T19:27:44.907Z,17.54
2023-03-31T19:30:50.268Z,17.51
2023-03-31T19:33:55.627Z,17.48
2023-03-31T19:36:59.587Z,17.48
2023-03-31T19:40:05.394Z,17.25
2023-03-31T19:43:19.519Z,17.39
2023-03-31T19:46:23.583Z,17.26
2023-03-31T19:49:28.994Z,17.01
2023-03-31T19:52:32.932Z,16.78
2023-03-31T19:55:37.883Z,16.84
2023-03-31T19:58:42.335Z,16.47
2023-03-31T20:01:46.411Z,16.44
2023-03-31T20:04:52.007Z,16.30
2023-03-31T20:07:56.985Z,16.31
2023-03-31T20:11:02.066Z,16.40
2023-03-31T20:14:06.462Z,16.41
2023-03-31T20:17:11.962Z,16.37
2023-03-31T20:20:17.605Z,16.10
2023-03-31T20:23:21.561Z,16.10
2023-03-31T20:26:26.820Z,16.13
2023-03-31T20:29:30.744Z,16.12
2023-03-31T20:32:34.723Z,16.01
2023-03-31T20:35:40.134Z,16.04
2023-03-31T20:38:46.509Z,15.85
2023-03-31T20:41:51.510Z,16.00
2023-03-31T20:44:55.440Z,15.78
2023-03-31T20:47:59.373Z,15.59
2023-03-31T20:51:05.209Z,15.62
2023-03-31T20:54:09.373Z,15.58
2023-03-31T20:57:13.296Z,15.46
2023-03-31T21:00:17.946Z,15.17
2023-03-31T21:03:23.206Z,15.32
2023-03-31T21:06:29.421Z,15.59
2023-03-31T21:09:33.344Z,15.50
2023-03-31T21:12:38.223Z,15.48
2023-03-31T21:15:42.165Z,15.46
2023-03-31T21:18:46.166Z,15.58
2023-03-31T21:21:51.605Z,15.42
2023-03-31T21:24:55.626Z,15.15
2023-03-31T21:27:59.546Z,15.29
2023-03-31T21:31:05.450Z,14.88
2023-03-31T21:34:09.490Z,15.11
2023-03-31T21:37:14.787Z,15.20
2023-03-31T21:40:18.775Z,15.13
2023-03-31T21:43:23.226Z,15.10
2023-03-31T21:46:28.822Z,15.00
2023-03-31T21:49:32.925Z,15.09
2023-03-31T21:52:38.290Z,15.34
2023-03-31T21:55:42.488Z,15.01
2023-03-31T21:58:46.649Z,15.22
2023-03-31T22:01:50.551Z,15.04
2023-03-31T22:04:54.573Z,15.24
2023-03-31T22:07:59.891Z,15.23
2023-03-31T22:11:05.306Z,15.22
2023-03-31T22:14:09.266Z,15.32
2023-03-31T22:17:13.085Z,15.23
2023-03-31T22:20:17.025Z,14.87
2023-03-31T22:23:22.486Z,15.32
2023-03-31T22:26:27.406Z,15.26
2023-03-31T22:29:31.723Z,15.09
2023-03-31T22:32:35.691Z,15.05
2023-03-31T22:35:39.702Z,15.33
2023-03-31T22:38:45.213Z,15.51
2023-03-31T22:41:50.687Z,15.46
2023-03-31T22:44:54.629Z,15.35
2023-03-31T22:47:58.306Z,15.28
2023-03-31T22:51:05.162Z,15.38
2023-03-31T22:54:14.543Z,15.42
2023-03-31T22:57:18.448Z,15.23
2023-03-31T23:00:22.911Z,15.39
2023-03-31T23:03:27.359Z,15.11
2023-03-31T23:06:32.342Z,15.01
2023-03-31T23:09:39.029Z,14.95
2023-03-31T23:12:43.161Z,15.02
2023-03-31T23:15:46.832Z,15.00
2023-03-31T23:18:52.059Z,14.96
2023-03-31T23:21:55.939Z,14.89
2023-03-31T23:25:01.945Z,14.84
2023-03-31T23:28:06.202Z,14.84
2023-03-31T23:31:11.415Z,14.93
2023-03-31T23:34:15.275Z,14.96
2023-03-31T23:37:19.446Z,14.77
2023-03-31T23:40:24.920Z,14.92
2023-03-31T23:43:29.034Z,14.88
2023-03-31T23:46:33.878Z,14.85
2023-03-31T23:49:37.649Z,15.04
2023-03-31T23:52:41.439Z,14.81
2023-03-31T23:55:54.868Z,14.80
2023-03-31T23:58:58.664Z,15.00
